Time;durP1;ratioP1;P1;durP2;ratioP2;P2;SDS_P1;SDS_P2;PMS_P1;PMS_P2;Temp;Humidity;BMP_temperature;BMP_pressure;BME280_temperature;BME280_humidity;BME280_pressure;Samples;Min_cycle;Max_cycle;Signal;HPM_P1;HPM_P2
2021/03/04 00:00:42;;;;;;;31.45;14.27;;;;;;;-1.55;91.40;99821.34;3522402;28;20051;-47
2021/03/04 00:02:24;;;;;;;38.47;16.77;;;;;;;-1.56;91.31;99822.16;3522917;28;20470;-47
2021/03/04 00:04:06;;;;;;;32.33;14.13;;;;;;;-1.57;91.50;99817.84;3511450;28;20479;-47
2021/03/04 00:05:47;;;;;;;38.25;18.92;;;;;;;-1.58;91.08;99816.06;3515614;28;20070;-47
2021/03/04 00:07:29;;;;;;;42.35;19.10;;;;;;;-1.61;91.23;99810.81;3525445;28;20047;-46
2021/03/04 00:09:11;;;;;;;38.10;16.45;;;;;;;-1.65;91.50;99806.28;3521704;28;20040;-47
2021/03/04 00:10:53;;;;;;;44.75;19.17;;;;;;;-1.67;91.14;99813.81;3522946;28;20047;-47
2021/03/04 00:12:34;;;;;;;46.42;19.40;;;;;;;-1.71;91.41;99809.31;3522243;28;20062;-48
2021/03/04 00:14:16;;;;;;;32.60;14.32;;;;;;;-1.70;91.31;99805.09;3519858;28;20054;-47
2021/03/04 00:15:58;;;;;;;40.60;17.83;;;;;;;-1.73;91.35;99803.25;3523744;28;20047;-47
2021/03/04 00:17:40;;;;;;;35.35;15.07;;;;;;;-1.74;91.31;99801.47;3521661;28;20054;-47
2021/03/04 00:19:21;;;;;;;43.28;18.08;;;;;;;-1.72;91.92;99806.69;3525120;28;20058;-47
2021/03/04 00:21:04;;;;;;;50.40;19.70;;;;;;;-1.71;91.92;99798.28;3521463;28;20523;-47
2021/03/04 00:22:45;;;;;;;27.73;12.88;;;;;;;-1.68;92.14;99794.25;3522964;28;20393;-48
2021/03/04 00:24:27;;;;;;;37.47;14.50;;;;;;;-1.65;92.18;99793.56;3522390;28;20052;-48
2021/03/04 00:26:09;;;;;;;24.10;11.80;;;;;;;-1.61;92.44;99793.00;3522074;28;20046;-47
2021/03/04 00:27:51;;;;;;;49.72;18.30;;;;;;;-1.56;92.81;99793.28;3511817;28;20048;-48
2021/03/04 00:29:33;;;;;;;41.60;16.10;;;;;;;-1.56;93.09;99786.53;3515035;28;20142;-48
2021/03/04 00:31:14;;;;;;;42.85;17.55;;;;;;;-1.53;93.50;99785.84;3524911;28;20104;-48
2021/03/04 00:32:57;;;;;;;33.28;13.45;;;;;;;-1.52;93.44;99783.41;3521286;28;20044;-48
2021/03/04 00:34:38;;;;;;;45.47;17.58;;;;;;;-1.51;93.25;99790.22;3524259;28;20527;-48
2021/03/04 00:36:20;;;;;;;45.42;19.17;;;;;;;-1.51;93.62;99779.19;3520923;28;20467;-47
2021/03/04 00:38:01;;;;;;;40.17;16.80;;;;;;;-1.53;93.74;99779.09;3521581;28;20582;-48
2021/03/04 00:39:44;;;;;;;45.47;17.70;;;;;;;-1.52;93.52;99774.91;3523542;28;20425;-48
2021/03/04 00:41:26;;;;;;;52.22;19.88;;;;;;;-1.52;93.76;99770.69;3519843;28;20090;-47
2021/03/04 00:43:07;;;;;;;45.22;16.33;;;;;;;-1.52;93.63;99763.06;3524899;28;20055;-48
2021/03/04 00:44:49;;;;;;;41.15;13.07;;;;;;;-1.51;93.47;99769.00;3521186;28;20104;-48
2021/03/04 00:46:31;;;;;;;42.97;17.13;;;;;;;-1.51;93.74;99769.88;3524450;28;20074;-47
2021/03/04 00:48:13;;;;;;;48.88;16.67;;;;;;;-1.52;93.47;99765.59;3521829;28;20048;-47
2021/03/04 00:49:54;;;;;;;43.15;18.15;;;;;;;-1.53;93.85;99768.91;3522545;28;20055;-47
2021/03/04 00:51:36;;;;;;;57.67;21.25;;;;;;;-1.53;93.83;99768.03;3523533;28;20067;-47
2021/03/04 00:53:18;;;;;;;71.35;20.05;;;;;;;-1.55;93.78;99754.34;3519938;28;20126;-47
2021/03/04 00:55:00;;;;;;;37.75;12.82;;;;;;;-1.56;94.03;99753.47;3524873;28;20048;-49
2021/03/04 00:56:42;;;;;;;48.65;16.50;;;;;;;-1.58;93.94;99751.59;3519135;28;20059;-48
2021/03/04 00:58:23;;;;;;;62.65;19.38;;;;;;;-1.59;94.39;99743.09;3522437;28;20047;-47
2021/03/04 01:00:07;;;;;;;38.92;13.50;;;;;;;-1.60;94.52;99743.88;3521728;28;20522;-48
2021/03/04 01:01:49;;;;;;;66.25;19.98;;;;;;;-1.59;94.35;99739.69;3521099;28;20078;-47
2021/03/04 01:03:31;;;;;;;57.38;15.40;;;;;;;-1.61;94.63;99746.31;3511267;28;20051;-48
2021/03/04 01:05:13;;;;;;;55.47;17.25;;;;;;;-1.61;94.89;99728.50;3515011;28;20044;-46
2021/03/04 01:06:55;;;;;;;62.28;18.02;;;;;;;-1.62;94.63;99719.16;3524654;28;20097;-48
2021/03/04 01:08:37;;;;;;;87.97;18.77;;;;;;;-1.62;95.04;99721.69;3519630;28;20051;-48
2021/03/04 01:10:24;;;;;;;83.43;23.00;;;;;;;-1.61;94.85;99720.88;3524086;28;20505;-58
2021/03/04 01:12:07;;;;;;;75.10;21.58;;;;;;;-1.60;95.31;99708.25;3521626;28;20082;-58
2021/03/04 01:13:49;;;;;;;93.68;23.02;;;;;;;-1.59;95.13;99710.03;3520453;28;20517;-58
2021/03/04 01:15:32;;;;;;;75.43;20.35;;;;;;;-1.59;95.15;99697.31;3524783;28;20416;-48
2021/03/04 01:17:14;;;;;;;80.65;21.38;;;;;;;-1.57;95.43;99710.13;3515776;28;20048;-58
2021/03/04 01:18:56;;;;;;;76.55;19.42;;;;;;;-1.58;95.66;99693.09;3512137;28;20093;-58
2021/03/04 01:20:37;;;;;;;89.60;21.92;;;;;;;-1.57;95.37;99694.88;3521703;28;20096;-58
2021/03/04 01:22:19;;;;;;;61.13;20.52;;;;;;;-1.56;95.55;99697.53;3522093;28;20506;-58
2021/03/04 01:24:00;;;;;;;55.70;16.85;;;;;;;-1.56;95.84;99689.88;3523821;28;20054;-48
2021/03/04 01:25:43;;;;;;;78.70;22.48;;;;;;;-1.56;95.79;99679.72;3521119;28;20058;-57
2021/03/04 01:27:25;;;;;;;75.75;22.40;;;;;;;-1.54;95.55;99682.31;3524894;28;20047;-48
2021/03/04 01:29:06;;;;;;;64.38;20.13;;;;;;;-1.53;95.72;99681.56;3519524;28;20047;-47
2021/03/04 01:30:48;;;;;;;136.00;27.85;;;;;;;-1.52;95.78;99673.16;3522106;28;20518;-48
2021/03/04 01:32:32;;;;;;;94.20;23.92;;;;;;;-1.51;96.08;99672.34;3521017;28;20043;-47
2021/03/04 01:34:15;;;;;;;110.45;28.85;;;;;;;-1.52;95.86;99666.38;3521661;28;20052;-47
2021/03/04 01:35:56;;;;;;;135.00;28.17;;;;;;;-1.51;95.87;99660.50;3523342;28;20085;-48
2021/03/04 01:37:38;;;;;;;98.55;25.80;;;;;;;-1.52;96.17;99660.44;3521027;28;20044;-48
2021/03/04 01:39:20;;;;;;;100.72;24.33;;;;;;;-1.51;96.05;99674.88;3524165;28;20048;-48
2021/03/04 01:41:02;;;;;;;144.82;34.05;;;;;;;-1.50;96.36;99669.91;3519204;28;20047;-48
2021/03/04 01:42:44;;;;;;;90.55;23.45;;;;;;;-1.49;96.17;99664.03;3522030;28;20151;-48
2021/03/04 01:44:26;;;;;;;104.75;21.38;;;;;;;-1.49;96.38;99656.41;3521601;28;20097;-47
2021/03/04 01:46:08;;;;;;;139.13;29.77;;;;;;;-1.48;96.66;99655.59;3521747;28;20067;-48
2021/03/04 01:48:04;;;;;;;77.38;21.58;;;;;;;-1.46;96.46;99658.25;3510189;28;20080;-48
2021/03/04 01:49:48;;;;;;;105.55;26.17;;;;;;;-1.43;96.51;99662.66;3518948;28;20051;-48
2021/03/04 01:51:30;;;;;;;128.82;30.23;;;;;;;-1.42;96.71;99659.31;3523332;28;20116;-48
2021/03/04 01:53:11;;;;;;;108.80;26.08;;;;;;;-1.42;96.71;99654.22;3512253;28;20052;-48
2021/03/04 01:54:53;;;;;;;166.20;30.75;;;;;;;-1.43;96.64;99650.81;3513117;28;20047;-49
2021/03/04 01:56:36;;;;;;;136.00;31.02;;;;;;;-1.43;96.53;99643.19;3522679;28;20508;-48
2021/03/04 01:58:18;;;;;;;138.00;30.20;;;;;;;-1.42;96.50;99637.28;3518938;28;20044;-52
2021/03/04 02:00:00;;;;;;;88.90;21.08;;;;;;;-1.41;96.75;99630.56;3524174;28;20146;-50
2021/03/04 02:01:42;;;;;;;83.40;22.27;;;;;;;-1.40;96.93;99635.75;3519623;28;20048;-52
2021/03/04 02:03:25;;;;;;;96.35;22.65;;;;;;;-1.39;96.71;99626.44;3523776;28;20546;-58
2021/03/04 02:05:09;;;;;;;95.13;24.67;;;;;;;-1.37;96.64;99625.72;3511821;28;20225;-58
2021/03/04 02:07:02;;;;;;;108.90;26.80;;;;;;;-1.36;96.96;99624.09;3512019;28;20043;-58
2021/03/04 02:08:51;;;;;;;130.10;29.17;;;;;;;-1.34;96.62;99614.88;3511087;28;20047;-58
2021/03/04 02:10:38;;;;;;;123.03;30.42;;;;;;;-1.32;96.81;99610.75;3521202;28;20112;-58
2021/03/04 02:12:29;;;;;;;133.85;27.45;;;;;;;-1.31;97.19;99604.88;3525670;28;20428;-58
2021/03/04 02:14:15;;;;;;;95.47;26.08;;;;;;;-1.30;96.77;99607.50;3521307;28;20074;-58
2021/03/04 02:16:04;;;;;;;153.35;34.13;;;;;;;-1.26;97.00;99606.00;3521627;28;20048;-58
2021/03/04 02:17:51;;;;;;;118.90;25.42;;;;;;;-1.25;97.08;99600.13;3512564;28;20067;-57
2021/03/04 02:19:45;;;;;;;140.93;31.75;;;;;;;-1.23;97.03;99602.78;3520721;28;20055;-58
2021/03/04 02:21:37;;;;;;;182.75;37.33;;;;;;;-1.21;97.31;99599.53;3525432;28;20128;-57
2021/03/04 02:23:38;;;;;;;154.45;35.95;;;;;;;-1.19;97.23;99594.53;3525083;28;20100;-58
2021/03/04 02:25:28;;;;;;;97.63;23.90;;;;;;;-1.19;96.96;99597.97;3522934;28;20217;-58
2021/03/04 02:27:14;;;;;;;123.07;29.15;;;;;;;-1.17;97.12;99586.22;3525626;28;20130;-58
2021/03/04 02:28:58;;;;;;;161.50;34.40;;;;;;;-1.15;96.96;99587.16;3523218;28;20051;-58
2021/03/04 02:30:42;;;;;;;196.50;36.70;;;;;;;-1.13;97.03;99588.13;3521962;28;20052;-58
2021/03/04 02:32:25;;;;;;;179.25;36.92;;;;;;;-1.12;97.28;99592.44;3512389;28;20090;-57
2021/03/04 02:34:09;;;;;;;127.68;30.83;;;;;;;-1.11;97.22;99585.69;3519654;28;20373;-58
2021/03/04 02:35:53;;;;;;;141.55;26.92;;;;;;;-1.10;97.06;99577.25;3525418;28;20051;-58
2021/03/04 02:37:41;;;;;;;180.35;38.03;;;;;;;-1.07;97.42;99564.69;3514852;28;20055;-58
2021/03/04 02:39:24;;;;;;;130.98;29.02;;;;;;;-1.06;97.46;99565.59;3514451;28;20059;-48
2021/03/04 02:41:07;;;;;;;190.73;38.33;;;;;;;-1.03;97.08;99563.22;3524671;28;20524;-52
2021/03/04 02:42:50;;;;;;;165.23;34.92;;;;;;;-1.02;97.42;99560.75;3522958;28;20051;-47
2021/03/04 02:44:33;;;;;;;141.38;33.35;;;;;;;-1.00;97.28;99554.06;3526488;28;20055;-48
2021/03/04 02:46:15;;;;;;;174.00;37.67;;;;;;;-0.98;97.11;99549.94;3516738;28;20047;-47
2021/03/04 02:47:57;;;;;;;151.35;33.28;;;;;;;-0.96;97.18;99553.50;3523320;28;20134;-48
2021/03/04 02:49:40;;;;;;;206.40;40.58;;;;;;;-0.94;97.36;99546.81;3522443;28;20047;-48
2021/03/04 02:51:22;;;;;;;158.68;34.15;;;;;;;-0.93;97.40;99546.00;3523979;28;20043;-57
2021/03/04 02:53:03;;;;;;;135.68;27.98;;;;;;;-0.92;97.31;99541.81;3526230;28;20056;-58
2021/03/04 02:54:46;;;;;;;149.52;35.90;;;;;;;-0.90;97.33;99547.84;3520591;28;20120;-48
2021/03/04 02:56:30;;;;;;;176.38;36.53;;;;;;;-0.88;97.28;99537.75;3524092;28;20062;-49
2021/03/04 02:58:13;;;;;;;;;;;;;;;-0.87;97.38;99534.41;3522930;28;20094;-48
2021/03/04 02:59:56;;;;;;;129.48;26.33;;;;;;;-0.86;97.47;99528.53;3524096;28;19987;-58
2021/03/04 03:01:41;;;;;;;168.35;38.30;;;;;;;-0.84;97.56;99524.41;3524689;28;20055;-58
2021/03/04 03:03:24;;;;;;;155.90;33.20;;;;;;;-0.82;97.40;99517.72;3521197;28;20189;-48
2021/03/04 03:05:08;;;;;;;;;;;;;;;-0.81;97.28;99516.94;3526511;28;20048;-51
2021/03/04 03:06:51;;;;;;;165.13;37.25;;;;;;;-0.79;97.48;99513.69;3521003;28;20162;-48
2021/03/04 03:08:33;;;;;;;169.82;38.90;;;;;;;-0.79;97.33;99506.03;3523800;28;20043;-47
2021/03/04 03:10:16;;;;;;;216.45;43.50;;;;;;;-0.78;97.57;99497.63;3523208;28;20051;-48
2021/03/04 03:11:59;;;;;;;193.38;41.55;;;;;;;-0.77;97.49;99498.50;3520976;28;20044;-48
2021/03/04 03:13:43;;;;;;;192.30;40.88;;;;;;;-0.75;97.36;99499.44;3516797;28;20052;-58
2021/03/04 03:15:25;;;;;;;71.63;18.02;;;;;;;-0.74;97.59;99491.03;3522141;28;20074;-57
2021/03/04 03:17:07;;;;;;;259.58;48.83;;;;;;;-0.74;97.31;99491.91;3524653;28;20488;-58
2021/03/04 03:19:03;;;;;;;177.02;35.15;;;;;;;-0.73;97.81;99487.66;3512510;28;20135;-58
2021/03/04 03:20:45;;;;;;;245.75;44.72;;;;;;;-0.71;97.58;99493.75;3513208;28;20048;-49
2021/03/04 03:22:27;;;;;;;212.55;42.42;;;;;;;-0.69;97.51;99491.25;3524988;28;20529;-48
2021/03/04 03:24:09;;;;;;;217.70;42.65;;;;;;;-0.68;97.77;99487.94;3522100;28;20090;-49
2021/03/04 03:25:50;;;;;;;240.77;44.85;;;;;;;-0.67;97.61;99497.34;3525492;28;20058;-47
2021/03/04 03:27:32;;;;;;;179.38;38.45;;;;;;;-0.66;97.76;99483.78;3515918;28;20489;-48
2021/03/04 03:29:15;;;;;;;195.40;40.75;;;;;;;-0.64;97.77;99482.22;3513608;28;20048;-49
2021/03/04 03:30:56;;;;;;;191.45;39.72;;;;;;;-0.63;97.87;99487.38;3522045;28;20508;-49
2021/03/04 03:32:41;;;;;;;125.53;28.92;;;;;;;-0.63;97.79;99479.75;3522932;28;20039;-49
2021/03/04 03:34:24;;;;;;;180.73;39.22;;;;;;;-0.62;97.98;99468.78;3525420;28;20512;-48
2021/03/04 03:36:08;;;;;;;154.25;37.03;;;;;;;-0.61;97.58;99473.06;3520765;28;20108;-58
2021/03/04 03:37:52;;;;;;;227.60;44.92;;;;;;;-0.59;97.65;99473.16;3524833;28;20059;-58
2021/03/04 03:39:34;;;;;;;;;;;;;;;-0.59;97.76;99462.97;3515283;28;20428;-58
2021/03/04 03:41:17;;;;;;;186.88;41.90;;;;;;;-0.60;97.80;99461.22;3514098;28;19927;-58
2021/03/04 03:43:02;;;;;;;152.02;35.05;;;;;;;-0.59;97.87;99458.75;3523855;28;20058;-58
2021/03/04 03:44:47;;;;;;;177.88;35.33;;;;;;;-0.58;97.70;99459.63;3520682;28;20051;-58
2021/03/04 03:46:32;;;;;;;219.27;45.03;;;;;;;-0.58;97.87;99446.91;3525499;28;20063;-58
2021/03/04 03:48:15;;;;;;;207.93;41.78;;;;;;;-0.60;98.10;99445.94;3520366;28;20142;-58
2021/03/04 03:49:58;;;;;;;123.18;29.92;;;;;;;-0.58;97.65;99439.25;3524708;28;20101;-58
2021/03/04 03:51:41;;;;;;;219.70;45.27;;;;;;;-0.58;97.63;99439.25;3520400;28;20058;-58
2021/03/04 03:53:24;;;;;;;211.85;46.65;;;;;;;-0.59;97.89;99438.38;3521580;28;20052;-58
2021/03/04 03:55:09;;;;;;;183.70;40.53;;;;;;;-0.57;97.85;99439.34;3524739;28;20051;-57
2021/03/04 03:56:51;;;;;;;165.38;39.05;;;;;;;-0.58;97.80;99435.03;3520145;28;20500;-58
2021/03/04 03:58:36;;;;;;;106.35;24.67;;;;;;;-0.56;97.73;99443.63;3525649;28;20078;-58
2021/03/04 04:00:24;;;;;;;157.15;38.15;;;;;;;-0.56;97.92;99428.34;3521444;28;20055;-58
2021/03/04 04:02:06;;;;;;;177.18;39.42;;;;;;;-0.56;97.60;99422.38;3523297;28;20058;-58
2021/03/04 04:03:48;;;;;;;216.68;46.45;;;;;;;-0.56;97.87;99414.72;3523907;28;20134;-58
2021/03/04 04:05:31;;;;;;;167.23;39.47;;;;;;;-0.57;97.95;99413.88;3520422;28;20047;-58
2021/03/04 04:07:14;;;;;;;190.52;41.00;;;;;;;-0.57;97.65;99415.50;3525388;28;20048;-58
2021/03/04 04:08:57;;;;;;;96.05;23.42;;;;;;;-0.59;97.76;99402.72;3520233;28;20508;-58
2021/03/04 04:10:39;;;;;;;176.95;40.85;;;;;;;-0.60;97.89;99403.50;3523166;28;20100;-58
2021/03/04 04:12:32;;;;;;;153.23;39.50;;;;;;;-0.61;97.77;99396.63;3522715;28;20145;-58
2021/03/04 04:14:14;;;;;;;135.68;37.22;;;;;;;-0.62;97.87;99383.84;3520544;28;20281;-58
2021/03/04 04:15:56;;;;;;;174.43;42.10;;;;;;;-0.64;97.86;99375.22;3510797;28;20425;-58
2021/03/04 04:17:38;;;;;;;156.68;40.10;;;;;;;-0.66;97.69;99369.19;3516490;28;20067;-58
2021/03/04 04:19:20;;;;;;;162.10;42.20;;;;;;;-0.69;97.61;99372.44;3525152;28;20142;-57
2021/03/04 04:21:03;;;;;;;144.60;40.53;;;;;;;-0.72;97.79;99367.19;3514452;28;20054;-58
2021/03/04 04:22:45;;;;;;;176.27;41.45;;;;;;;-0.73;97.47;99362.88;3513424;28;20130;-57
2021/03/04 04:24:27;;;;;;;164.75;42.63;;;;;;;-0.73;97.63;99368.88;3512311;28;20150;-57
2021/03/04 04:26:09;;;;;;;147.73;40.65;;;;;;;-0.74;97.45;99367.09;3514496;28;20507;-58
2021/03/04 04:27:53;;;;;;;133.23;36.95;;;;;;;-0.75;97.77;99356.81;3525144;28;20074;-57
2021/03/04 04:29:34;;;;;;;109.07;30.13;;;;;;;-0.76;97.77;99355.97;3521502;28;20082;-58
2021/03/04 04:31:17;;;;;;;123.13;35.25;;;;;;;-0.75;97.72;99350.09;3524308;28;20504;-58
2021/03/04 04:32:59;;;;;;;96.30;28.77;;;;;;;-0.76;97.39;99339.81;3514344;28;20133;-57
2021/03/04 04:34:40;;;;;;;122.53;36.60;;;;;;;-0.79;97.28;99344.75;3512272;28;20097;-58
2021/03/04 04:36:22;;;;;;;119.32;34.72;;;;;;;-0.81;97.63;99343.78;3523050;28;20066;-58
2021/03/04 04:38:04;;;;;;;119.47;38.13;;;;;;;-0.83;97.57;99347.94;3519796;28;20522;-58
2021/03/04 04:39:45;;;;;;;111.72;36.70;;;;;;;-0.85;97.58;99346.94;3524879;28;20051;-58
2021/03/04 04:41:27;;;;;;;109.18;31.30;;;;;;;-0.85;97.40;99341.84;3520035;28;20051;-59
2021/03/04 04:43:09;;;;;;;116.30;37.05;;;;;;;-0.86;97.39;99340.97;3523926;28;20058;-58
2021/03/04 04:44:51;;;;;;;121.05;34.80;;;;;;;-0.86;97.10;99340.97;3520871;28;20051;-58
2021/03/04 04:46:33;;;;;;;103.85;34.63;;;;;;;-0.86;97.22;99335.03;3523591;28;20071;-57
2021/03/04 04:48:15;;;;;;;117.47;34.53;;;;;;;-0.85;97.22;99331.66;3511407;28;20449;-58
2021/03/04 04:49:56;;;;;;;98.80;32.55;;;;;;;-0.83;97.30;99330.09;3513367;28;20574;-58
2021/03/04 04:51:38;;;;;;;96.20;29.02;;;;;;;-0.83;97.20;99333.50;3524626;28;20540;-58
2021/03/04 04:53:19;;;;;;;104.85;33.53;;;;;;;-0.84;97.25;99326.66;3517164;28;20047;-58
2021/03/04 04:55:01;;;;;;;67.72;21.58;;;;;;;-0.85;96.99;99327.47;3510480;28;20083;-58
2021/03/04 04:56:43;;;;;;;98.00;30.88;;;;;;;-0.87;96.89;99323.97;3521431;28;20066;-58
2021/03/04 04:58:24;;;;;;;91.00;28.50;;;;;;;-0.88;96.96;99327.28;3521971;28;20059;-57
2021/03/04 05:00:08;;;;;;;109.75;33.50;;;;;;;-0.89;96.92;99324.66;3522608;28;20043;-58
2021/03/04 05:01:51;;;;;;;103.28;32.97;;;;;;;-0.89;96.80;99322.13;3519661;28;20043;-58
2021/03/04 05:03:32;;;;;;;88.70;31.10;;;;;;;-0.89;96.97;99325.53;3524650;28;20212;-58
2021/03/04 05:05:14;;;;;;;79.38;28.08;;;;;;;-0.87;96.69;99325.63;3519558;28;20096;-58
2021/03/04 05:06:56;;;;;;;100.45;34.83;;;;;;;-0.86;96.76;99322.28;3524045;28;20047;-58
2021/03/04 05:08:37;;;;;;;121.07;37.25;;;;;;;-0.86;96.58;99314.66;3513637;28;20052;-58
2021/03/04 05:10:20;;;;;;;172.07;48.47;;;;;;;-0.85;96.60;99307.09;3511827;28;20120;-58
2021/03/04 05:12:01;;;;;;;131.95;36.78;;;;;;;-0.81;96.81;99309.00;3522798;28;20047;-57
2021/03/04 05:13:44;;;;;;;103.03;33.35;;;;;;;-0.78;96.58;99309.16;3519438;28;20093;-58
2021/03/04 05:15:26;;;;;;;145.90;43.67;;;;;;;-0.76;96.67;99304.16;3524499;28;20055;-58
2021/03/04 05:17:08;;;;;;;194.88;55.28;;;;;;;-0.73;96.50;99302.66;3519405;28;20047;-58
2021/03/04 05:18:50;;;;;;;135.15;41.08;;;;;;;-0.69;96.64;99297.69;3522981;28;20429;-48
2021/03/04 05:20:46;;;;;;;92.07;30.30;;;;;;;-0.65;96.44;99289.44;3521382;28;20047;-48
2021/03/04 05:22:27;;;;;;;125.30;38.95;;;;;;;-0.62;96.31;99287.94;3520135;28;20055;-48
2021/03/04 05:24:09;;;;;;;145.48;43.65;;;;;;;-0.57;96.43;99294.13;3524183;28;20048;-48
2021/03/04 05:25:51;;;;;;;125.30;38.80;;;;;;;-0.53;96.33;99295.16;3519266;28;20137;-48
2021/03/04 05:27:33;;;;;;;136.27;44.05;;;;;;;-0.49;96.08;99294.50;3524405;28;20043;-48
2021/03/04 05:29:14;;;;;;;128.23;40.78;;;;;;;-0.45;96.10;99288.75;3520776;28;20543;-48
2021/03/04 05:30:56;;;;;;;111.22;35.25;;;;;;;-0.40;96.03;99281.38;3523374;28;20043;-47
2021/03/04 05:32:38;;;;;;;107.20;36.58;;;;;;;-0.34;96.02;99280.00;3521877;28;20044;-48
2021/03/04 05:34:20;;;;;;;101.18;35.90;;;;;;;-0.28;95.57;99278.56;3519706;28;20040;-49
2021/03/04 05:36:02;;;;;;;108.95;36.95;;;;;;;-0.25;95.74;99269.41;3523858;28;20052;-50
2021/03/04 05:37:44;;;;;;;104.32;36.30;;;;;;;-0.18;95.31;99276.56;3520954;28;20044;-47
2021/03/04 05:39:26;;;;;;;96.22;33.78;;;;;;;-0.12;95.10;99270.88;3524516;28;20044;-48
2021/03/04 05:41:08;;;;;;;95.15;33.35;;;;;;;-0.04;94.97;99268.69;3519215;28;20085;-50
2021/03/04 05:42:50;;;;;;;88.28;33.15;;;;;;;0.01;95.02;99262.16;3522866;28;20051;-53
2021/03/04 05:44:32;;;;;;;80.20;31.73;;;;;;;0.08;94.65;99254.00;3511583;28;20402;-54
2021/03/04 05:46:14;;;;;;;75.10;31.50;;;;;;;0.16;94.61;99257.81;3512140;28;20114;-55
2021/03/04 05:48:01;;;;;;;93.70;33.58;;;;;;;0.23;94.65;99252.19;3509872;28;20048;-57
2021/03/04 05:49:50;;;;;;;86.32;33.63;;;;;;;0.32;94.53;99254.31;3517769;28;20101;-54
2021/03/04 05:51:33;;;;;;;86.22;32.40;;;;;;;0.38;94.28;99256.28;3522231;28;20089;-53
2021/03/04 05:53:18;;;;;;;80.13;31.25;;;;;;;0.43;94.07;99254.81;3521314;28;20397;-57
2021/03/04 05:55:01;;;;;;;81.88;29.83;;;;;;;0.47;93.27;99255.81;3521960;28;20083;-57
2021/03/04 05:56:45;;;;;;;74.03;28.58;;;;;;;0.54;93.36;99250.22;3523145;28;20052;-58
2021/03/04 05:58:29;;;;;;;84.35;31.70;;;;;;;0.60;92.70;99247.97;3517968;28;20059;-58
2021/03/04 06:00:13;;;;;;;76.03;28.52;;;;;;;0.68;92.94;99244.06;3509976;28;20048;-58
2021/03/04 06:01:54;;;;;;;81.95;29.58;;;;;;;0.76;93.19;99242.75;3519289;28;20047;-58
2021/03/04 06:03:37;;;;;;;67.70;25.95;;;;;;;0.85;93.13;99243.97;3521373;28;20047;-53
2021/03/04 06:05:19;;;;;;;70.68;25.75;;;;;;;0.90;92.43;99242.50;3521521;28;20508;-54
2021/03/04 06:07:01;;;;;;;76.85;30.30;;;;;;;0.97;92.08;99240.28;3519135;28;20048;-54
2021/03/04 06:08:43;;;;;;;63.15;22.52;;;;;;;1.07;92.05;99249.25;3510324;28;20040;-54
2021/03/04 06:10:24;;;;;;;80.40;28.25;;;;;;;1.15;92.31;99241.91;3512234;28;20048;-54
2021/03/04 06:12:07;;;;;;;65.05;26.23;;;;;;;1.23;91.98;99243.13;3511945;28;20044;-59
2021/03/04 06:13:49;;;;;;;83.07;31.50;;;;;;;1.27;90.65;99241.59;3518441;28;20051;-59
2021/03/04 06:15:31;;;;;;;62.05;24.02;;;;;;;1.38;91.33;99237.78;3523177;28;20047;-58
2021/03/04 06:17:14;;;;;;;70.50;28.42;;;;;;;1.44;90.89;99234.63;3510541;28;20420;-61
2021/03/04 06:18:56;;;;;;;74.00;28.27;;;;;;;1.48;90.17;99229.72;3513824;28;20040;-60
2021/03/04 06:20:39;;;;;;;68.40;25.73;;;;;;;1.57;90.25;99226.69;3523848;28;20047;-59
2021/03/04 06:22:25;;;;;;;79.05;31.20;;;;;;;1.61;89.02;99217.47;3520486;28;20055;-59
2021/03/04 06:24:12;;;;;;;72.78;27.90;;;;;;;1.69;88.95;99216.97;3522230;28;20056;-59
2021/03/04 06:25:54;;;;;;;76.63;28.08;;;;;;;1.77;88.60;99214.72;3520363;28;20501;-59
2021/03/04 06:27:37;;;;;;;70.28;27.95;;;;;;;1.85;88.15;99202.25;3520242;28;20071;-59
2021/03/04 06:29:21;;;;;;;85.90;31.48;;;;;;;1.94;87.91;99198.38;3509873;28;20070;-60
2021/03/04 06:31:03;;;;;;;74.10;29.17;;;;;;;2.05;88.62;99191.13;3515884;28;20048;-59
2021/03/04 06:32:55;;;;;;;64.80;26.17;;;;;;;2.12;86.99;99190.56;3523695;28;20088;-59
2021/03/04 06:34:38;;;;;;;66.38;27.80;;;;;;;2.25;87.41;99186.81;3520066;28;20083;-59
2021/03/04 06:36:20;;;;;;;67.75;25.63;;;;;;;2.39;88.00;99189.00;3522396;28;20048;-59
2021/03/04 06:38:13;;;;;;;61.42;26.42;;;;;;;2.46;87.19;99179.06;3521800;28;20051;-59
2021/03/04 06:39:55;;;;;;;66.30;25.27;;;;;;;2.59;86.79;99180.41;3519668;28;20059;-59
2021/03/04 06:41:37;;;;;;;60.15;25.27;;;;;;;2.68;86.57;99172.19;3523644;28;20739;-59
2021/03/04 06:43:19;;;;;;;65.13;26.83;;;;;;;2.74;85.59;99172.41;3518708;28;20496;-59
2021/03/04 06:45:01;;;;;;;63.80;27.15;;;;;;;2.86;84.95;99174.56;3522868;28;20051;-59
2021/03/04 06:46:44;;;;;;;56.17;23.60;;;;;;;2.98;85.16;99171.56;3520759;28;20052;-59
2021/03/04 06:48:26;;;;;;;66.90;28.30;;;;;;;3.04;83.73;99172.63;3521283;28;20079;-59
2021/03/04 06:50:09;;;;;;;63.15;27.30;;;;;;;3.14;83.72;99170.44;3522769;28;20288;-59
2021/03/04 06:51:55;;;;;;;66.30;27.63;;;;;;;3.20;82.88;99163.78;3519949;28;20608;-59
2021/03/04 06:53:37;;;;;;;53.03;20.52;;;;;;;3.31;83.59;99156.47;3523821;28;20048;-59
2021/03/04 06:55:19;;;;;;;67.18;26.15;;;;;;;3.40;82.97;99155.91;3519442;28;20066;-59
2021/03/04 06:57:12;;;;;;;57.47;25.42;;;;;;;3.49;82.27;99143.44;3525239;28;20079;-49
2021/03/04 06:58:59;;;;;;;67.13;27.05;;;;;;;3.62;83.06;99140.44;3512814;28;20420;-49
2021/03/04 07:00:41;;;;;;;60.80;26.90;;;;;;;3.72;81.39;99135.59;3517694;28;20425;-49
2021/03/04 07:02:24;;;;;;;54.05;22.23;;;;;;;3.82;81.86;99143.66;3526149;28;20055;-49
2021/03/04 07:04:12;;;;;;;68.30;28.80;;;;;;;3.92;81.02;99137.09;3520935;28;20040;-50
2021/03/04 07:05:55;;;;;;;70.07;27.52;;;;;;;3.94;79.61;99145.72;3523503;28;20316;-52
2021/03/04 07:07:37;;;;;;;58.22;25.80;;;;;;;4.03;79.54;99142.56;3523413;28;20408;-49
2021/03/04 07:09:20;;;;;;;60.10;25.13;;;;;;;4.13;79.77;99142.03;3521500;28;20052;-48
2021/03/04 07:11:04;;;;;;;59.47;24.88;;;;;;;4.20;78.77;99131.13;3511664;28;20052;-50
2021/03/04 07:12:47;;;;;;;56.15;23.08;;;;;;;4.30;79.00;99128.81;3519232;28;20500;-52
2021/03/04 07:14:30;;;;;;;62.17;24.23;;;;;;;4.39;77.98;99127.41;3524070;28;20052;-49
2021/03/04 07:16:17;;;;;;;54.77;20.20;;;;;;;4.48;78.26;99119.13;3524127;28;20047;-50
2021/03/04 07:18:00;;;;;;;54.42;25.60;;;;;;;4.55;76.86;99122.75;3521801;28;20699;-49
2021/03/04 07:19:49;;;;;;;57.63;26.42;;;;;;;4.60;77.13;99122.03;3511680;28;20078;-51
2021/03/04 07:21:38;;;;;;;60.80;25.90;;;;;;;4.71;76.34;99122.34;3520405;28;20500;-53
2021/03/04 07:23:20;;;;;;;50.63;21.75;;;;;;;4.84;75.79;99123.53;3525235;28;20044;-53
2021/03/04 07:25:02;;;;;;;53.33;23.65;;;;;;;4.95;76.26;99114.44;3513457;28;20540;-53
2021/03/04 07:26:45;;;;;;;54.03;21.65;;;;;;;5.05;74.99;99123.25;3512756;28;20520;-53
2021/03/04 07:28:28;;;;;;;52.25;27.17;;;;;;;5.06;74.57;99114.72;3512326;28;20075;-53
2021/03/04 07:30:12;;;;;;;60.92;25.42;;;;;;;5.15;74.63;99102.09;3517940;28;20416;-51
2021/03/04 07:31:54;;;;;;;;;;;;;;;5.27;74.81;99098.09;3526173;28;20051;-50
2021/03/04 07:33:37;;;;;;;57.97;22.50;;;;;;;5.36;74.00;99098.34;3522080;28;19930;-51
2021/03/04 07:35:20;;;;;;;44.17;19.50;;;;;;;5.47;73.63;99094.34;3524636;28;20455;-51
2021/03/04 07:37:03;;;;;;;51.00;23.73;;;;;;;5.51;72.36;99085.84;3513017;28;20055;-50
2021/03/04 07:38:53;;;;;;;55.75;24.67;;;;;;;5.58;71.91;99088.59;3515089;28;20093;-52
2021/03/04 07:40:37;;;;;;;48.97;23.00;;;;;;;5.69;73.73;99084.56;3511528;28;20535;-52
2021/03/04 07:42:20;;;;;;;53.90;23.83;;;;;;;5.78;73.00;99082.19;3518711;28;20578;-52
2021/03/04 07:44:02;;;;;;;56.70;24.13;;;;;;;5.86;71.95;99072.09;3524950;28;20079;-53
2021/03/04 07:45:44;;;;;;;47.70;21.00;;;;;;;5.92;71.29;99077.38;3513809;28;20101;-54
2021/03/04 07:47:29;;;;;;;52.67;22.35;;;;;;;6.01;70.70;99079.28;3514073;28;20122;-54
2021/03/04 07:49:11;;;;;;;50.85;20.67;;;;;;;6.13;71.30;99065.00;3511314;28;20059;-52
2021/03/04 07:50:58;;;;;;;57.53;24.20;;;;;;;6.19;69.75;99061.66;3518553;28;20051;-52
2021/03/04 07:52:41;;;;;;;53.83;24.08;;;;;;;6.33;71.16;99059.38;3525061;28;20051;-52
2021/03/04 07:54:26;;;;;;;40.88;21.75;;;;;;;6.48;70.40;99057.09;3522695;28;20075;-52